Главная страница
METAR-TAF:

METAR-TAF

Аэропорты :

Куусамо, Финляндия

широта: 65-58N, долгота: 029-11E, высота над уровнем моря: 262 м

Текущие метеонаблюдения

Эта сводка был подготовлена 31 минут назад, в 05:50 UTC
Ветер 2 Узел от северный
Температура 8°C
Влажность 100%
Давление 1013 hPa
Видимость 10 км и более
Сплошная облачность на высоте 600 фута

METAR: EFKS 230550Z AUTO 36002KT 9999 OVC006 08/08 Q1013

Время: 09:21 (06:21 UTC)

Прогноз

Эта сводка был подготовлена 54 минут назад, в 05:27 UTC
Прогноз действительный с 23-го 06 UTC до 23-го 13 UTC
Ветер 4 Узел от северный
Видимость 10 км и более
Сплошная облачность на высоте 600 фута
временами
С 23-го 06 UTC до 23-го 13 UTC
Сплошная облачность на высоте 500 фута

TAF: EFKS 230527Z 2306/2313 01004KT 9999 OVC006 TEMPO 2306/2313 OVC005

Метеонаблюдения и прогнозы для более 4000 аэропортов (сводки METAR и TAF).

Имеющиеся станции представлены на карте желтыми и красными точками.

Чтобы увидеть название станции, наведите на нее мышь.

Затем щелкните, чтобы увидеть метеонаблюдения и метеопрогнозы.

Управление картой: чтобы увеличить масштаб, щелкните зеленые кнопки с черным крестиком; чтобы уменьшить масштаб, щелкните зеленую кнопку с тире; для просмотра соседних карт щелкайте зеленые стрелки.


METAR-TAF: